Terminal Aerodrome Forecast
Issued by NWS Des Moines, IA

Home | Current Version | Previous Version | Text Only | Print | Product List | Glossary On
Versions: 1 2 3 4 5 6 7 8 9 10 11 12 13 14 15 16 17 18 19 20
000
FTUS43 KDMX 252338
TAFALO
TAF
KALO 252338Z 2600/2624 07012KT 5SM BR VCSH OVC008
     FM260800 04007KT 3SM -DZ BR OVC003
     FM261700 35006KT 4SM BR OVC007
     FM262000 34007KT P6SM OVC015=

USA.gov is the U.S. government's official web portal to all federal, state and local government web resources and services.